sensor_id;sensor_type;location;lat;lon;timestamp;temperature;humidity
38938;DHT22;24727;51.974;20.868;2023-06-22T00:00:53;19.80;1.00
38938;DHT22;24727;51.974;20.868;2023-06-22T00:03:20;19.80;1.00
38938;DHT22;24727;51.974;20.868;2023-06-22T00:05:47;19.80;1.00
38938;DHT22;24727;51.974;20.868;2023-06-22T00:08:13;19.90;1.00
38938;DHT22;24727;51.974;20.868;2023-06-22T00:10:39;19.90;1.00
38938;DHT22;24727;51.974;20.868;2023-06-22T00:13:07;19.80;1.00
38938;DHT22;24727;51.974;20.868;2023-06-22T00:15:33;19.80;1.00
38938;DHT22;24727;51.974;20.868;2023-06-22T00:17:59;19.80;1.00
38938;DHT22;24727;51.974;20.868;2023-06-22T00:20:26;19.70;1.00
38938;DHT22;24727;51.974;20.868;2023-06-22T00:22:56;19.60;1.00
38938;DHT22;24727;51.974;20.868;2023-06-22T00:25:22;19.50;1.00
38938;DHT22;24727;51.974;20.868;2023-06-22T00:27:49;19.50;1.00
38938;DHT22;24727;51.974;20.868;2023-06-22T00:30:18;19.50;1.00
38938;DHT22;24727;51.974;20.868;2023-06-22T00:32:45;19.50;1.00
38938;DHT22;24727;51.974;20.868;2023-06-22T00:35:14;19.50;1.00
38938;DHT22;24727;51.974;20.868;2023-06-22T00:37:40;19.50;1.00
38938;DHT22;24727;51.974;20.868;2023-06-22T00:40:11;19.40;1.00
38938;DHT22;24727;51.974;20.868;2023-06-22T00:42:38;19.30;1.00
38938;DHT22;24727;51.974;20.868;2023-06-22T00:45:05;19.10;1.00
38938;DHT22;24727;51.974;20.868;2023-06-22T00:47:32;19.00;1.00
38938;DHT22;24727;51.974;20.868;2023-06-22T00:49:59;18.90;1.00
38938;DHT22;24727;51.974;20.868;2023-06-22T00:52:26;18.90;1.00
38938;DHT22;24727;51.974;20.868;2023-06-22T00:54:56;19.00;1.00
38938;DHT22;24727;51.974;20.868;2023-06-22T00:57:24;19.10;1.00
38938;DHT22;24727;51.974;20.868;2023-06-22T00:59:53;19.00;1.00
38938;DHT22;24727;51.974;20.868;2023-06-22T01:02:20;19.10;1.00
38938;DHT22;24727;51.974;20.868;2023-06-22T01:04:46;19.10;1.00
38938;DHT22;24727;51.974;20.868;2023-06-22T01:07:31;19.10;1.00
38938;DHT22;24727;51.974;20.868;2023-06-22T01:12:55;18.80;1.00
38938;DHT22;24727;51.974;20.868;2023-06-22T01:15:37;18.90;1.00
38938;DHT22;24727;51.974;20.868;2023-06-22T01:18:06;18.90;1.00
38938;DHT22;24727;51.974;20.868;2023-06-22T01:20:35;18.90;1.00
38938;DHT22;24727;51.974;20.868;2023-06-22T01:25:47;18.80;1.00
38938;DHT22;24727;51.974;20.868;2023-06-22T01:28:46;18.80;1.00
38938;DHT22;24727;51.974;20.868;2023-06-22T01:31:14;18.90;1.00
38938;DHT22;24727;51.974;20.868;2023-06-22T01:33:43;18.80;1.00
38938;DHT22;24727;51.974;20.868;2023-06-22T01:36:10;18.70;1.00
38938;DHT22;24727;51.974;20.868;2023-06-22T01:38:37;18.50;1.00
38938;DHT22;24727;51.974;20.868;2023-06-22T01:41:04;18.50;1.00
38938;DHT22;24727;51.974;20.868;2023-06-22T01:43:30;18.40;1.00
38938;DHT22;24727;51.974;20.868;2023-06-22T01:46:00;18.50;1.00
38938;DHT22;24727;51.974;20.868;2023-06-22T01:48:26;18.60;1.00
38938;DHT22;24727;51.974;20.868;2023-06-22T01:50:52;18.70;1.00
38938;DHT22;24727;51.974;20.868;2023-06-22T01:53:21;18.70;1.00
38938;DHT22;24727;51.974;20.868;2023-06-22T01:55:47;18.70;1.00
38938;DHT22;24727;51.974;20.868;2023-06-22T01:58:13;18.70;1.00
38938;DHT22;24727;51.974;20.868;2023-06-22T02:00:41;18.60;1.00
38938;DHT22;24727;51.974;20.868;2023-06-22T02:03:16;18.60;1.00
38938;DHT22;24727;51.974;20.868;2023-06-22T02:05:52;18.50;1.00
38938;DHT22;24727;51.974;20.868;2023-06-22T02:08:30;18.40;1.00
38938;DHT22;24727;51.974;20.868;2023-06-22T02:10:57;18.40;9.50
38938;DHT22;24727;51.974;20.868;2023-06-22T02:13:25;18.20;28.60
38938;DHT22;24727;51.974;20.868;2023-06-22T02:15:51;18.20;13.40
38938;DHT22;24727;51.974;20.868;2023-06-22T02:18:17;18.20;1.00
38938;DHT22;24727;51.974;20.868;2023-06-22T02:20:43;18.20;1.00
38938;DHT22;24727;51.974;20.868;2023-06-22T02:23:09;18.30;1.00
38938;DHT22;24727;51.974;20.868;2023-06-22T02:25:35;18.30;14.90
38938;DHT22;24727;51.974;20.868;2023-06-22T02:28:02;18.20;1.00
38938;DHT22;24727;51.974;20.868;2023-06-22T02:30:27;18.30;7.40
38938;DHT22;24727;51.974;20.868;2023-06-22T02:32:53;18.30;23.80
38938;DHT22;24727;51.974;20.868;2023-06-22T02:35:30;18.30;29.30
38938;DHT22;24727;51.974;20.868;2023-06-22T02:38:02;18.30;37.60
38938;DHT22;24727;51.974;20.868;2023-06-22T02:40:29;18.40;56.30
38938;DHT22;24727;51.974;20.868;2023-06-22T02:42:57;18.40;64.30
38938;DHT22;24727;51.974;20.868;2023-06-22T02:45:27;18.60;71.90
38938;DHT22;24727;51.974;20.868;2023-06-22T02:47:52;18.90;79.10
38938;DHT22;24727;51.974;20.868;2023-06-22T02:50:18;19.10;83.30
38938;DHT22;24727;51.974;20.868;2023-06-22T02:52:44;19.10;85.70
38938;DHT22;24727;51.974;20.868;2023-06-22T02:55:10;19.10;87.30
38938;DHT22;24727;51.974;20.868;2023-06-22T02:57:36;19.20;88.70
38938;DHT22;24727;51.974;20.868;2023-06-22T03:00:03;19.20;89.60
38938;DHT22;24727;51.974;20.868;2023-06-22T03:02:42;19.30;90.50
38938;DHT22;24727;51.974;20.868;2023-06-22T03:05:08;19.20;91.10
38938;DHT22;24727;51.974;20.868;2023-06-22T03:07:42;19.20;91.70
38938;DHT22;24727;51.974;20.868;2023-06-22T03:10:09;19.20;92.00
38938;DHT22;24727;51.974;20.868;2023-06-22T03:12:36;19.30;92.50
38938;DHT22;24727;51.974;20.868;2023-06-22T03:15:02;19.20;92.60
38938;DHT22;24727;51.974;20.868;2023-06-22T03:17:28;19.20;92.60
38938;DHT22;24727;51.974;20.868;2023-06-22T03:19:54;19.20;92.60
38938;DHT22;24727;51.974;20.868;2023-06-22T03:22:19;19.20;92.60
38938;DHT22;24727;51.974;20.868;2023-06-22T03:24:45;19.20;92.90
38938;DHT22;24727;51.974;20.868;2023-06-22T03:27:11;19.20;93.00
38938;DHT22;24727;51.974;20.868;2023-06-22T03:29:37;19.20;93.00
38938;DHT22;24727;51.974;20.868;2023-06-22T03:32:03;19.20;93.00
38938;DHT22;24727;51.974;20.868;2023-06-22T03:34:31;19.30;93.10
38938;DHT22;24727;51.974;20.868;2023-06-22T03:37:00;19.30;93.10
38938;DHT22;24727;51.974;20.868;2023-06-22T03:39:25;19.30;92.70
38938;DHT22;24727;51.974;20.868;2023-06-22T03:41:51;19.30;92.70
38938;DHT22;24727;51.974;20.868;2023-06-22T03:44:17;19.30;92.70
38938;DHT22;24727;51.974;20.868;2023-06-22T03:46:43;19.30;92.70
38938;DHT22;24727;51.974;20.868;2023-06-22T03:49:08;19.30;92.70
38938;DHT22;24727;51.974;20.868;2023-06-22T03:51:34;19.40;92.70
38938;DHT22;24727;51.974;20.868;2023-06-22T03:54:00;19.40;92.70
38938;DHT22;24727;51.974;20.868;2023-06-22T03:56:26;19.40;92.50
38938;DHT22;24727;51.974;20.868;2023-06-22T03:58:52;19.40;92.40
38938;DHT22;24727;51.974;20.868;2023-06-22T04:01:18;19.40;92.40
38938;DHT22;24727;51.974;20.868;2023-06-22T04:03:43;19.40;92.10
38938;DHT22;24727;51.974;20.868;2023-06-22T04:06:10;19.40;91.70
38938;DHT22;24727;51.974;20.868;2023-06-22T04:08:35;19.40;91.30
38938;DHT22;24727;51.974;20.868;2023-06-22T04:11:01;19.40;90.90
38938;DHT22;24727;51.974;20.868;2023-06-22T04:13:27;19.40;90.40
38938;DHT22;24727;51.974;20.868;2023-06-22T04:15:54;19.40;90.00
38938;DHT22;24727;51.974;20.868;2023-06-22T04:18:20;19.40;89.20
38938;DHT22;24727;51.974;20.868;2023-06-22T04:20:46;19.50;89.20
38938;DHT22;24727;51.974;20.868;2023-06-22T04:23:12;19.50;88.70
38938;DHT22;24727;51.974;20.868;2023-06-22T04:25:39;19.50;88.20
38938;DHT22;24727;51.974;20.868;2023-06-22T04:28:05;19.60;87.30
38938;DHT22;24727;51.974;20.868;2023-06-22T04:30:37;19.60;87.00
38938;DHT22;24727;51.974;20.868;2023-06-22T04:33:13;19.60;86.40
38938;DHT22;24727;51.974;20.868;2023-06-22T04:35:39;19.60;85.70
38938;DHT22;24727;51.974;20.868;2023-06-22T04:38:07;19.70;85.10
38938;DHT22;24727;51.974;20.868;2023-06-22T04:40:33;19.70;85.40
38938;DHT22;24727;51.974;20.868;2023-06-22T04:42:59;19.70;84.30
38938;DHT22;24727;51.974;20.868;2023-06-22T04:45:28;19.80;83.20
38938;DHT22;24727;51.974;20.868;2023-06-22T04:47:55;19.80;82.30
38938;DHT22;24727;51.974;20.868;2023-06-22T04:50:20;19.80;82.50
38938;DHT22;24727;51.974;20.868;2023-06-22T04:52:47;19.80;81.20
38938;DHT22;24727;51.974;20.868;2023-06-22T04:55:14;19.80;80.40
38938;DHT22;24727;51.974;20.868;2023-06-22T04:57:44;19.80;80.40
38938;DHT22;24727;51.974;20.868;2023-06-22T05:00:23;19.80;81.20
38938;DHT22;24727;51.974;20.868;2023-06-22T05:02:49;19.80;80.50
38938;DHT22;24727;51.974;20.868;2023-06-22T05:05:15;19.80;80.30
38938;DHT22;24727;51.974;20.868;2023-06-22T05:07:46;19.80;80.30
38938;DHT22;24727;51.974;20.868;2023-06-22T05:10:16;19.80;79.50
38938;DHT22;24727;51.974;20.868;2023-06-22T05:12:42;19.80;78.90
38938;DHT22;24727;51.974;20.868;2023-06-22T05:15:08;19.80;78.50
38938;DHT22;24727;51.974;20.868;2023-06-22T05:17:35;19.80;78.50
38938;DHT22;24727;51.974;20.868;2023-06-22T05:20:02;19.80;78.10
38938;DHT22;24727;51.974;20.868;2023-06-22T05:22:32;19.90;77.90
38938;DHT22;24727;51.974;20.868;2023-06-22T05:24:57;19.90;77.70
38938;DHT22;24727;51.974;20.868;2023-06-22T05:27:23;19.80;77.60
38938;DHT22;24727;51.974;20.868;2023-06-22T05:29:49;19.80;76.10
38938;DHT22;24727;51.974;20.868;2023-06-22T05:32:15;19.80;75.90
38938;DHT22;24727;51.974;20.868;2023-06-22T05:34:41;19.90;75.30
38938;DHT22;24727;51.974;20.868;2023-06-22T05:37:07;19.90;74.00
38938;DHT22;24727;51.974;20.868;2023-06-22T05:39:35;19.90;73.60
38938;DHT22;24727;51.974;20.868;2023-06-22T05:42:07;20.00;72.70
38938;DHT22;24727;51.974;20.868;2023-06-22T05:44:33;20.00;72.60
38938;DHT22;24727;51.974;20.868;2023-06-22T05:47:00;20.10;73.70
38938;DHT22;24727;51.974;20.868;2023-06-22T05:49:26;20.20;74.30
38938;DHT22;24727;51.974;20.868;2023-06-22T05:51:58;20.20;73.90
38938;DHT22;24727;51.974;20.868;2023-06-22T05:54:25;20.20;71.80
38938;DHT22;24727;51.974;20.868;2023-06-22T05:56:51;20.30;71.30
38938;DHT22;24727;51.974;20.868;2023-06-22T05:59:17;20.40;72.20
38938;DHT22;24727;51.974;20.868;2023-06-22T06:01:43;20.40;70.00
38938;DHT22;24727;51.974;20.868;2023-06-22T06:04:09;20.40;67.40
38938;DHT22;24727;51.974;20.868;2023-06-22T06:06:35;20.50;67.50
38938;DHT22;24727;51.974;20.868;2023-06-22T06:09:04;20.60;67.40
38938;DHT22;24727;51.974;20.868;2023-06-22T06:11:30;20.50;65.10
38938;DHT22;24727;51.974;20.868;2023-06-22T06:13:55;20.50;64.80
38938;DHT22;24727;51.974;20.868;2023-06-22T06:16:22;20.50;65.10
38938;DHT22;24727;51.974;20.868;2023-06-22T06:18:48;20.50;64.20
38938;DHT22;24727;51.974;20.868;2023-06-22T06:21:16;20.60;65.50
38938;DHT22;24727;51.974;20.868;2023-06-22T06:23:42;20.60;64.30
38938;DHT22;24727;51.974;20.868;2023-06-22T06:26:08;20.70;64.80
38938;DHT22;24727;51.974;20.868;2023-06-22T06:28:35;20.70;62.40
38938;DHT22;24727;51.974;20.868;2023-06-22T06:31:01;20.70;60.40
38938;DHT22;24727;51.974;20.868;2023-06-22T06:33:26;20.70;58.80
38938;DHT22;24727;51.974;20.868;2023-06-22T06:35:53;20.90;55.20
38938;DHT22;24727;51.974;20.868;2023-06-22T06:38:19;21.00;51.00
38938;DHT22;24727;51.974;20.868;2023-06-22T06:40:45;21.20;50.60
38938;DHT22;24727;51.974;20.868;2023-06-22T06:43:10;21.40;47.10
38938;DHT22;24727;51.974;20.868;2023-06-22T06:45:36;21.50;37.60
38938;DHT22;24727;51.974;20.868;2023-06-22T06:48:02;21.90;32.80
38938;DHT22;24727;51.974;20.868;2023-06-22T06:50:28;22.10;27.40
38938;DHT22;24727;51.974;20.868;2023-06-22T06:52:54;22.40;22.00
38938;DHT22;24727;51.974;20.868;2023-06-22T06:55:21;22.40;11.40
38938;DHT22;24727;51.974;20.868;2023-06-22T06:57:50;22.50;1.00
38938;DHT22;24727;51.974;20.868;2023-06-22T07:00:18;22.80;1.00
38938;DHT22;24727;51.974;20.868;2023-06-22T07:02:45;22.80;1.00
38938;DHT22;24727;51.974;20.868;2023-06-22T07:05:12;22.80;1.00
38938;DHT22;24727;51.974;20.868;2023-06-22T07:07:38;22.90;1.00
38938;DHT22;24727;51.974;20.868;2023-06-22T07:10:05;23.00;1.00
38938;DHT22;24727;51.974;20.868;2023-06-22T07:12:31;23.00;1.00
38938;DHT22;24727;51.974;20.868;2023-06-22T07:15:05;23.10;1.00
38938;DHT22;24727;51.974;20.868;2023-06-22T07:17:31;23.10;1.00
38938;DHT22;24727;51.974;20.868;2023-06-22T07:19:57;23.30;1.00
38938;DHT22;24727;51.974;20.868;2023-06-22T07:22:23;23.40;1.00
38938;DHT22;24727;51.974;20.868;2023-06-22T07:24:49;23.20;1.00
38938;DHT22;24727;51.974;20.868;2023-06-22T07:27:15;23.20;1.00
38938;DHT22;24727;51.974;20.868;2023-06-22T07:29:44;23.40;1.00
38938;DHT22;24727;51.974;20.868;2023-06-22T07:32:10;23.50;1.00
38938;DHT22;24727;51.974;20.868;2023-06-22T07:34:36;23.50;1.00
38938;DHT22;24727;51.974;20.868;2023-06-22T07:37:02;23.60;1.00
38938;DHT22;24727;51.974;20.868;2023-06-22T07:39:28;23.60;1.00
38938;DHT22;24727;51.974;20.868;2023-06-22T07:41:54;23.70;1.00
38938;DHT22;24727;51.974;20.868;2023-06-22T07:44:20;23.60;1.00
38938;DHT22;24727;51.974;20.868;2023-06-22T07:46:47;23.50;1.00
38938;DHT22;24727;51.974;20.868;2023-06-22T07:49:13;23.50;1.00
38938;DHT22;24727;51.974;20.868;2023-06-22T07:51:39;23.70;1.00
38938;DHT22;24727;51.974;20.868;2023-06-22T07:54:05;23.80;1.00
38938;DHT22;24727;51.974;20.868;2023-06-22T07:56:32;24.00;1.00
38938;DHT22;24727;51.974;20.868;2023-06-22T07:58:58;24.10;1.00
38938;DHT22;24727;51.974;20.868;2023-06-22T08:01:26;24.20;1.00
38938;DHT22;24727;51.974;20.868;2023-06-22T08:03:52;24.40;1.00
38938;DHT22;24727;51.974;20.868;2023-06-22T08:06:18;24.70;1.00
38938;DHT22;24727;51.974;20.868;2023-06-22T08:08:44;24.60;1.00
38938;DHT22;24727;51.974;20.868;2023-06-22T08:11:14;24.40;1.00
38938;DHT22;24727;51.974;20.868;2023-06-22T08:13:40;24.40;1.00
38938;DHT22;24727;51.974;20.868;2023-06-22T08:16:08;24.30;1.00
38938;DHT22;24727;51.974;20.868;2023-06-22T08:18:34;24.50;1.00
38938;DHT22;24727;51.974;20.868;2023-06-22T08:21:00;24.80;1.00
38938;DHT22;24727;51.974;20.868;2023-06-22T08:23:27;24.90;1.00
38938;DHT22;24727;51.974;20.868;2023-06-22T08:25:53;25.20;1.00
38938;DHT22;24727;51.974;20.868;2023-06-22T08:28:19;25.40;1.00
38938;DHT22;24727;51.974;20.868;2023-06-22T08:30:45;25.60;1.00
38938;DHT22;24727;51.974;20.868;2023-06-22T08:33:11;25.20;1.00
38938;DHT22;24727;51.974;20.868;2023-06-22T08:35:38;25.10;1.00
38938;DHT22;24727;51.974;20.868;2023-06-22T08:38:05;25.30;1.00
38938;DHT22;24727;51.974;20.868;2023-06-22T08:40:31;25.50;1.00
38938;DHT22;24727;51.974;20.868;2023-06-22T08:42:59;25.80;1.00
38938;DHT22;24727;51.974;20.868;2023-06-22T08:45:25;26.40;1.00
38938;DHT22;24727;51.974;20.868;2023-06-22T08:47:51;26.60;1.00
38938;DHT22;24727;51.974;20.868;2023-06-22T08:50:17;26.60;1.00
38938;DHT22;24727;51.974;20.868;2023-06-22T08:52:43;26.50;1.00
38938;DHT22;24727;51.974;20.868;2023-06-22T08:55:10;26.30;1.00
38938;DHT22;24727;51.974;20.868;2023-06-22T08:57:36;26.20;1.00
38938;DHT22;24727;51.974;20.868;2023-06-22T09:00:07;26.10;1.00
38938;DHT22;24727;51.974;20.868;2023-06-22T09:02:47;25.90;1.00
38938;DHT22;24727;51.974;20.868;2023-06-22T09:05:13;25.50;1.00
38938;DHT22;24727;51.974;20.868;2023-06-22T09:07:40;25.90;1.00
38938;DHT22;24727;51.974;20.868;2023-06-22T09:10:06;26.00;1.00
38938;DHT22;24727;51.974;20.868;2023-06-22T09:12:33;25.60;1.00
38938;DHT22;24727;51.974;20.868;2023-06-22T09:15:00;25.80;1.00
38938;DHT22;24727;51.974;20.868;2023-06-22T09:17:27;25.70;1.00
38938;DHT22;24727;51.974;20.868;2023-06-22T09:19:53;25.70;1.00
38938;DHT22;24727;51.974;20.868;2023-06-22T09:22:19;25.70;1.00
38938;DHT22;24727;51.974;20.868;2023-06-22T09:24:45;26.00;1.00
38938;DHT22;24727;51.974;20.868;2023-06-22T09:27:12;26.10;1.00
38938;DHT22;24727;51.974;20.868;2023-06-22T09:29:39;26.20;1.00
38938;DHT22;24727;51.974;20.868;2023-06-22T09:32:05;26.30;1.00
38938;DHT22;24727;51.974;20.868;2023-06-22T09:34:33;26.30;1.00
38938;DHT22;24727;51.974;20.868;2023-06-22T09:37:05;26.10;1.00
38938;DHT22;24727;51.974;20.868;2023-06-22T09:39:31;26.00;1.00
38938;DHT22;24727;51.974;20.868;2023-06-22T09:41:59;26.10;1.00
38938;DHT22;24727;51.974;20.868;2023-06-22T09:44:26;26.20;1.00
38938;DHT22;24727;51.974;20.868;2023-06-22T09:46:53;26.40;1.00
38938;DHT22;24727;51.974;20.868;2023-06-22T09:49:19;26.40;1.00
38938;DHT22;24727;51.974;20.868;2023-06-22T09:51:52;26.60;1.00
38938;DHT22;24727;51.974;20.868;2023-06-22T09:54:18;26.50;1.00
38938;DHT22;24727;51.974;20.868;2023-06-22T11:07:09;26.20;1.00
38938;DHT22;24727;51.974;20.868;2023-06-22T11:09:36;28.40;1.00
38938;DHT22;24727;51.974;20.868;2023-06-22T11:12:02;27.70;1.00
38938;DHT22;24727;51.974;20.868;2023-06-22T11:14:28;27.40;1.00
38938;DHT22;24727;51.974;20.868;2023-06-22T11:16:54;28.10;1.00
38938;DHT22;24727;51.974;20.868;2023-06-22T11:19:20;29.30;1.00
38938;DHT22;24727;51.974;20.868;2023-06-22T11:21:46;28.40;1.00
38938;DHT22;24727;51.974;20.868;2023-06-22T11:24:12;27.80;1.00
38938;DHT22;24727;51.974;20.868;2023-06-22T11:26:38;27.40;1.00
38938;DHT22;24727;51.974;20.868;2023-06-22T11:29:04;27.20;1.00
38938;DHT22;24727;51.974;20.868;2023-06-22T11:31:35;27.00;1.00
38938;DHT22;24727;51.974;20.868;2023-06-22T11:34:01;26.90;1.00
38938;DHT22;24727;51.974;20.868;2023-06-22T11:36:28;26.70;1.00
38938;DHT22;24727;51.974;20.868;2023-06-22T11:38:57;26.90;1.00
38938;DHT22;24727;51.974;20.868;2023-06-22T11:41:23;26.90;1.00
38938;DHT22;24727;51.974;20.868;2023-06-22T11:43:49;27.70;1.00
38938;DHT22;24727;51.974;20.868;2023-06-22T11:46:15;27.70;1.00
38938;DHT22;24727;51.974;20.868;2023-06-22T11:48:41;27.50;1.00
38938;DHT22;24727;51.974;20.868;2023-06-22T11:51:08;27.20;1.00
38938;DHT22;24727;51.974;20.868;2023-06-22T11:53:34;27.60;1.00
38938;DHT22;24727;51.974;20.868;2023-06-22T11:56:01;28.60;1.00
38938;DHT22;24727;51.974;20.868;2023-06-22T11:58:27;28.90;1.00
38938;DHT22;24727;51.974;20.868;2023-06-22T12:00:53;30.00;1.00
38938;DHT22;24727;51.974;20.868;2023-06-22T12:03:19;29.00;1.00
38938;DHT22;24727;51.974;20.868;2023-06-22T12:05:47;27.70;1.00
38938;DHT22;24727;51.974;20.868;2023-06-22T12:08:14;27.40;1.00
38938;DHT22;24727;51.974;20.868;2023-06-22T12:10:40;27.80;1.00
38938;DHT22;24727;51.974;20.868;2023-06-22T12:13:06;27.50;1.00
38938;DHT22;24727;51.974;20.868;2023-06-22T12:15:33;28.20;1.00
38938;DHT22;24727;51.974;20.868;2023-06-22T12:17:59;28.60;1.00
38938;DHT22;24727;51.974;20.868;2023-06-22T12:20:27;27.90;1.00
38938;DHT22;24727;51.974;20.868;2023-06-22T12:22:53;27.60;1.00
38938;DHT22;24727;51.974;20.868;2023-06-22T12:25:21;27.80;1.00
38938;DHT22;24727;51.974;20.868;2023-06-22T12:27:47;27.50;1.00
38938;DHT22;24727;51.974;20.868;2023-06-22T12:30:13;27.30;1.00
38938;DHT22;24727;51.974;20.868;2023-06-22T12:32:39;27.50;1.00
38938;DHT22;24727;51.974;20.868;2023-06-22T12:35:07;27.50;1.00
38938;DHT22;24727;51.974;20.868;2023-06-22T12:37:37;27.20;1.00
38938;DHT22;24727;51.974;20.868;2023-06-22T12:40:03;27.20;1.00
38938;DHT22;24727;51.974;20.868;2023-06-22T12:42:30;28.10;1.00
38938;DHT22;24727;51.974;20.868;2023-06-22T12:44:56;28.10;1.00
38938;DHT22;24727;51.974;20.868;2023-06-22T12:47:22;28.50;1.00
38938;DHT22;24727;51.974;20.868;2023-06-22T12:49:47;28.90;1.00
38938;DHT22;24727;51.974;20.868;2023-06-22T12:52:15;29.00;1.00
38938;DHT22;24727;51.974;20.868;2023-06-22T12:54:41;28.90;1.00
38938;DHT22;24727;51.974;20.868;2023-06-22T12:57:07;28.70;1.00
38938;DHT22;24727;51.974;20.868;2023-06-22T12:59:35;27.90;1.00
38938;DHT22;24727;51.974;20.868;2023-06-22T13:02:02;28.00;1.00
38938;DHT22;24727;51.974;20.868;2023-06-22T13:04:28;28.30;1.00
38938;DHT22;24727;51.974;20.868;2023-06-22T13:06:55;28.30;1.00
38938;DHT22;24727;51.974;20.868;2023-06-22T13:09:20;29.00;1.00
38938;DHT22;24727;51.974;20.868;2023-06-22T13:11:47;28.80;1.00
38938;DHT22;24727;51.974;20.868;2023-06-22T13:14:14;28.70;1.00
38938;DHT22;24727;51.974;20.868;2023-06-22T13:16:42;28.80;1.00
38938;DHT22;24727;51.974;20.868;2023-06-22T13:19:08;28.80;1.00
38938;DHT22;24727;51.974;20.868;2023-06-22T13:21:34;28.40;1.00
38938;DHT22;24727;51.974;20.868;2023-06-22T13:24:00;27.70;1.00
38938;DHT22;24727;51.974;20.868;2023-06-22T13:26:27;27.60;1.00
38938;DHT22;24727;51.974;20.868;2023-06-22T13:28:55;27.70;1.00
38938;DHT22;24727;51.974;20.868;2023-06-22T13:31:21;27.70;1.00
38938;DHT22;24727;51.974;20.868;2023-06-22T13:33:47;28.10;1.00
38938;DHT22;24727;51.974;20.868;2023-06-22T13:36:14;28.00;1.00
38938;DHT22;24727;51.974;20.868;2023-06-22T13:38:41;27.60;1.00
38938;DHT22;24727;51.974;20.868;2023-06-22T13:41:07;27.80;1.00
38938;DHT22;24727;51.974;20.868;2023-06-22T13:43:34;29.20;1.00
38938;DHT22;24727;51.974;20.868;2023-06-22T13:46:00;29.90;1.00
38938;DHT22;24727;51.974;20.868;2023-06-22T13:48:26;30.70;1.00
38938;DHT22;24727;51.974;20.868;2023-06-22T13:50:54;31.60;1.00
38938;DHT22;24727;51.974;20.868;2023-06-22T13:53:21;32.70;1.00
38938;DHT22;24727;51.974;20.868;2023-06-22T13:55:47;33.10;1.00
38938;DHT22;24727;51.974;20.868;2023-06-22T13:58:14;31.40;1.00
38938;DHT22;24727;51.974;20.868;2023-06-22T14:00:42;31.00;1.00
38938;DHT22;24727;51.974;20.868;2023-06-22T14:03:08;31.20;1.00
38938;DHT22;24727;51.974;20.868;2023-06-22T14:05:34;30.50;1.00
38938;DHT22;24727;51.974;20.868;2023-06-22T14:08:00;30.30;1.00
38938;DHT22;24727;51.974;20.868;2023-06-22T14:10:26;29.70;1.00
38938;DHT22;24727;51.974;20.868;2023-06-22T14:12:52;28.70;1.00
38938;DHT22;24727;51.974;20.868;2023-06-22T14:15:19;28.40;1.00
38938;DHT22;24727;51.974;20.868;2023-06-22T14:17:45;28.70;1.00
38938;DHT22;24727;51.974;20.868;2023-06-22T14:20:11;29.50;1.00
38938;DHT22;24727;51.974;20.868;2023-06-22T14:22:37;29.50;1.00
38938;DHT22;24727;51.974;20.868;2023-06-22T14:25:04;28.90;1.00
38938;DHT22;24727;51.974;20.868;2023-06-22T14:27:31;28.40;1.00
38938;DHT22;24727;51.974;20.868;2023-06-22T14:29:57;29.20;1.00
38938;DHT22;24727;51.974;20.868;2023-06-22T14:32:23;29.00;1.00
38938;DHT22;24727;51.974;20.868;2023-06-22T14:34:50;29.30;1.00
38938;DHT22;24727;51.974;20.868;2023-06-22T14:37:16;28.90;1.00
38938;DHT22;24727;51.974;20.868;2023-06-22T14:39:42;28.70;1.00
38938;DHT22;24727;51.974;20.868;2023-06-22T14:42:09;29.20;1.00
38938;DHT22;24727;51.974;20.868;2023-06-22T14:44:35;30.40;1.00
38938;DHT22;24727;51.974;20.868;2023-06-22T14:47:00;30.50;1.00
38938;DHT22;24727;51.974;20.868;2023-06-22T14:49:27;29.80;1.00
38938;DHT22;24727;51.974;20.868;2023-06-22T14:51:53;29.00;1.00
38938;DHT22;24727;51.974;20.868;2023-06-22T14:54:21;27.90;1.00
38938;DHT22;24727;51.974;20.868;2023-06-22T14:56:48;27.50;1.00
38938;DHT22;24727;51.974;20.868;2023-06-22T14:59:14;27.70;1.00
38938;DHT22;24727;51.974;20.868;2023-06-22T15:01:40;28.90;1.00
38938;DHT22;24727;51.974;20.868;2023-06-22T15:04:06;29.90;1.00
38938;DHT22;24727;51.974;20.868;2023-06-22T15:06:32;30.20;1.00
38938;DHT22;24727;51.974;20.868;2023-06-22T15:08:59;30.20;1.00
38938;DHT22;24727;51.974;20.868;2023-06-22T15:11:25;30.30;1.00
38938;DHT22;24727;51.974;20.868;2023-06-22T15:13:51;29.30;1.00
38938;DHT22;24727;51.974;20.868;2023-06-22T15:16:17;29.60;1.00
38938;DHT22;24727;51.974;20.868;2023-06-22T15:18:43;28.50;1.00
38938;DHT22;24727;51.974;20.868;2023-06-22T15:21:09;28.80;1.00
38938;DHT22;24727;51.974;20.868;2023-06-22T15:23:35;28.60;1.00
38938;DHT22;24727;51.974;20.868;2023-06-22T15:26:04;28.10;1.00
38938;DHT22;24727;51.974;20.868;2023-06-22T15:28:31;28.40;1.00
38938;DHT22;24727;51.974;20.868;2023-06-22T15:30:58;28.40;1.00
38938;DHT22;24727;51.974;20.868;2023-06-22T15:33:24;28.20;1.00
38938;DHT22;24727;51.974;20.868;2023-06-22T15:35:52;27.90;1.00
38938;DHT22;24727;51.974;20.868;2023-06-22T15:38:21;27.90;1.00
38938;DHT22;24727;51.974;20.868;2023-06-22T15:40:47;28.40;1.00
38938;DHT22;24727;51.974;20.868;2023-06-22T15:43:13;28.80;1.00
38938;DHT22;24727;51.974;20.868;2023-06-22T15:45:40;28.90;1.00
38938;DHT22;24727;51.974;20.868;2023-06-22T15:48:06;28.60;1.00
38938;DHT22;24727;51.974;20.868;2023-06-22T15:50:34;28.90;1.00
38938;DHT22;24727;51.974;20.868;2023-06-22T15:53:00;29.40;1.00
38938;DHT22;24727;51.974;20.868;2023-06-22T15:55:27;30.20;1.00
38938;DHT22;24727;51.974;20.868;2023-06-22T15:57:54;30.60;1.00
38938;DHT22;24727;51.974;20.868;2023-06-22T16:00:20;30.20;1.00
38938;DHT22;24727;51.974;20.868;2023-06-22T16:02:47;30.10;1.00
38938;DHT22;24727;51.974;20.868;2023-06-22T16:05:13;29.30;1.00
38938;DHT22;24727;51.974;20.868;2023-06-22T16:07:39;29.00;1.00
38938;DHT22;24727;51.974;20.868;2023-06-22T16:10:06;28.40;1.00
38938;DHT22;24727;51.974;20.868;2023-06-22T16:12:34;27.90;1.00
38938;DHT22;24727;51.974;20.868;2023-06-22T16:15:01;27.70;1.00
38938;DHT22;24727;51.974;20.868;2023-06-22T16:17:28;27.90;1.00
38938;DHT22;24727;51.974;20.868;2023-06-22T16:19:55;28.00;1.00
38938;DHT22;24727;51.974;20.868;2023-06-22T16:22:23;28.00;1.00
38938;DHT22;24727;51.974;20.868;2023-06-22T16:24:49;28.00;1.00
38938;DHT22;24727;51.974;20.868;2023-06-22T16:27:17;28.30;1.00
38938;DHT22;24727;51.974;20.868;2023-06-22T16:29:43;28.90;1.00
38938;DHT22;24727;51.974;20.868;2023-06-22T16:32:09;28.50;1.00
38938;DHT22;24727;51.974;20.868;2023-06-22T16:34:36;28.40;1.00
38938;DHT22;24727;51.974;20.868;2023-06-22T16:37:03;28.20;1.00
38938;DHT22;24727;51.974;20.868;2023-06-22T16:39:29;28.70;1.00
38938;DHT22;24727;51.974;20.868;2023-06-22T16:41:55;28.90;1.00